Terminal Aerodrome Forecast
Issued by NWS

Home | Current Version | Previous Version | Text Only | Print | Product List | Glossary On
Versions: 1 2 3 4 5 6 7 8 9 10 11 12 13 14
215
FTUS45 KTFX 261120
TAFLWT
TAF
KLWT 261120Z 2612/2712 26005KT P6SM BKN060
     FM261700 33007KT P6SM SCT060 BKN100
     FM270600 14006KT P6SM BKN200=

USA.gov is the U.S. government's official web portal to all federal, state and local government web resources and services.